createdAt,value
2023-01-01T00:01:47.854Z,15.14
2023-01-01T00:03:53.972Z,15.13
2023-01-01T00:05:55.461Z,15.14
2023-01-01T00:08:04.344Z,15.19
2023-01-01T00:10:25.519Z,15.25
2023-01-01T00:12:27.123Z,15.23
2023-01-01T00:14:28.612Z,15.24
2023-01-01T00:16:30.133Z,15.24
2023-01-01T00:18:31.619Z,15.23
2023-01-01T00:20:35.487Z,15.22
2023-01-01T00:22:55.508Z,15.22
2023-01-01T00:24:57.640Z,15.23
2023-01-01T00:26:59.165Z,15.25
2023-01-01T00:29:01.314Z,15.27
2023-01-01T00:31:10.465Z,15.31
2023-01-01T00:33:11.991Z,15.32
2023-01-01T00:35:13.462Z,15.33
2023-01-01T00:37:18.332Z,15.29
2023-01-01T00:39:19.942Z,15.30
2023-01-01T00:41:22.230Z,15.33
2023-01-01T00:43:23.788Z,15.35
2023-01-01T00:45:25.323Z,15.34
2023-01-01T00:47:26.767Z,15.37
2023-01-01T00:49:28.237Z,15.38
2023-01-01T00:51:36.575Z,15.44
2023-01-01T00:53:38.604Z,15.45
2023-01-01T00:55:41.096Z,15.47
2023-01-01T00:57:42.568Z,15.50
2023-01-01T00:59:44.132Z,15.49
2023-01-01T01:01:45.658Z,15.46
2023-01-01T01:03:47.156Z,15.45
2023-01-01T01:05:48.597Z,15.43
2023-01-01T01:07:50.063Z,15.42
2023-01-01T01:09:51.537Z,15.49
2023-01-01T01:12:17.712Z,15.50
2023-01-01T01:14:15.016Z,15.50
2023-01-01T01:16:29.612Z,15.47
2023-01-01T01:18:31.153Z,15.45
2023-01-01T01:20:32.655Z,15.47
2023-01-01T01:22:34.839Z,15.47
2023-01-01T01:24:36.308Z,15.49
2023-01-01T01:26:37.821Z,15.44
2023-01-01T01:28:45.378Z,15.40
2023-01-01T01:30:50.517Z,15.42
2023-01-01T01:32:52.066Z,15.37
2023-01-01T01:34:53.529Z,15.38
2023-01-01T01:36:55.561Z,15.38
2023-01-01T01:38:57.193Z,15.37
2023-01-01T01:40:58.860Z,15.37
2023-01-01T01:43:00.386Z,15.38
2023-01-01T01:45:02.872Z,15.32
2023-01-01T01:47:04.437Z,15.30
2023-01-01T01:49:17.804Z,15.35
2023-01-01T01:51:24.665Z,15.38
2023-01-01T01:53:29.932Z,15.39
2023-01-01T01:55:35.159Z,15.40
2023-01-01T01:57:39.091Z,15.37
2023-01-01T01:59:47.507Z,15.39
2023-01-01T02:01:49.197Z,15.38
2023-01-01T02:04:08.653Z,15.39
2023-01-01T02:06:11.261Z,15.40
2023-01-01T02:08:15.758Z,15.37
2023-01-01T02:10:17.478Z,15.38
2023-01-01T02:12:18.975Z,15.39
2023-01-01T02:14:20.467Z,15.37
2023-01-01T02:16:32.552Z,15.36
2023-01-01T02:18:50.966Z,15.34
2023-01-01T02:21:12.600Z,15.33
2023-01-01T02:23:25.544Z,15.32
2023-01-01T02:25:51.353Z,15.27
2023-01-01T02:28:05.529Z,15.25
2023-01-01T02:30:09.105Z,15.25
2023-01-01T02:32:15.566Z,15.24
2023-01-01T02:34:21.369Z,15.21
2023-01-01T02:36:25.263Z,15.20
2023-01-01T02:38:34.987Z,15.20
2023-01-01T02:40:41.497Z,15.14
2023-01-01T02:42:43.211Z,15.12
2023-01-01T02:44:48.669Z,15.15
2023-01-01T02:46:50.154Z,15.15
2023-01-01T02:48:53.270Z,15.12
2023-01-01T02:51:01.123Z,15.08
2023-01-01T02:53:14.482Z,15.02
2023-01-01T02:55:44.594Z,14.97
2023-01-01T02:58:24.232Z,14.95
2023-01-01T03:00:31.276Z,14.88
2023-01-01T03:02:59.901Z,14.86
2023-01-01T03:05:17.315Z,14.82
2023-01-01T03:07:33.885Z,14.84
2023-01-01T03:09:59.016Z,14.86
2023-01-01T03:12:09.931Z,14.87
2023-01-01T03:14:20.897Z,14.83
2023-01-01T03:16:35.765Z,14.82
2023-01-01T03:19:10.421Z,14.84
2023-01-01T03:23:27.181Z,14.81
2023-01-01T03:25:34.111Z,14.81
2023-01-01T03:27:44.026Z,14.75
2023-01-01T03:29:49.011Z,14.71
2023-01-01T03:31:55.410Z,14.69
2023-01-01T03:34:03.907Z,14.65
2023-01-01T03:36:16.172Z,14.64
2023-01-01T03:38:34.165Z,14.62
2023-01-01T03:40:38.417Z,14.60
2023-01-01T03:42:43.933Z,14.58
2023-01-01T03:44:54.125Z,14.57
2023-01-01T03:46:56.195Z,14.56
2023-01-01T03:49:03.211Z,14.60
2023-01-01T03:51:17.623Z,14.64
2023-01-01T03:53:42.498Z,14.67
2023-01-01T03:55:55.213Z,14.67
2023-01-01T03:57:59.520Z,14.71
2023-01-01T04:00:09.618Z,14.71
2023-01-01T04:02:17.316Z,14.67
2023-01-01T04:04:19.839Z,14.67
2023-01-01T04:06:21.657Z,14.69
2023-01-01T04:08:23.436Z,14.75
2023-01-01T04:10:26.534Z,14.79
2023-01-01T04:12:30.411Z,14.79
2023-01-01T04:14:31.892Z,14.80
2023-01-01T04:16:33.465Z,14.81
2023-01-01T04:18:34.960Z,14.83
2023-01-01T04:20:36.423Z,14.83
2023-01-01T04:22:38.077Z,14.81
2023-01-01T04:24:39.537Z,14.78
2023-01-01T04:26:41.524Z,14.78
2023-01-01T04:28:43.111Z,14.78
2023-01-01T04:32:45.266Z,14.79
2023-01-01T04:34:46.704Z,14.82
2023-01-01T04:36:48.191Z,14.81
2023-01-01T04:38:49.703Z,14.80
2023-01-01T04:41:01.286Z,14.84
2023-01-01T04:43:02.750Z,14.87
2023-01-01T04:45:04.649Z,14.87
2023-01-01T04:47:06.367Z,14.89
2023-01-01T04:49:07.849Z,14.88
2023-01-01T04:51:11.193Z,14.84
2023-01-01T04:53:12.659Z,14.83
2023-01-01T04:55:14.300Z,14.83
2023-01-01T04:57:15.757Z,14.81
2023-01-01T04:59:17.251Z,14.80
2023-01-01T05:01:27.472Z,14.82
2023-01-01T05:03:29.452Z,14.81
2023-01-01T05:05:30.936Z,14.81
2023-01-01T05:07:33.370Z,14.86
2023-01-01T05:09:34.814Z,14.88
2023-01-01T05:11:36.452Z,14.88
2023-01-01T05:13:40.055Z,14.90
2023-01-01T05:15:41.500Z,14.88
2023-01-01T05:17:42.989Z,14.85
2023-01-01T05:19:44.459Z,14.85
2023-01-01T05:21:46.569Z,14.84
2023-01-01T05:23:48.126Z,14.80
2023-01-01T05:25:49.567Z,14.83
2023-01-01T05:27:51.195Z,14.82
2023-01-01T05:29:52.641Z,14.85
2023-01-01T05:31:54.118Z,14.86
2023-01-01T05:33:55.969Z,14.86
2023-01-01T05:35:57.468Z,14.84
2023-01-01T05:38:00.174Z,14.83
2023-01-01T05:40:01.730Z,14.84
2023-01-01T05:42:03.269Z,14.84
2023-01-01T05:44:06.625Z,14.87
2023-01-01T05:46:11.577Z,14.88
2023-01-01T05:48:13.083Z,14.85
2023-01-01T05:50:14.655Z,14.82
2023-01-01T05:52:17.544Z,14.78
2023-01-01T05:54:20.687Z,14.78
2023-01-01T05:56:22.847Z,14.76
2023-01-01T05:58:24.514Z,14.75
2023-01-01T06:00:25.987Z,14.75
2023-01-01T06:02:30.763Z,14.72
2023-01-01T06:04:32.343Z,14.75
2023-01-01T06:06:33.883Z,14.76
2023-01-01T06:08:35.399Z,14.77
2023-01-01T06:10:36.970Z,14.77
2023-01-01T06:12:38.433Z,14.76
2023-01-01T06:14:39.876Z,14.77
2023-01-01T06:16:42.535Z,14.73
2023-01-01T06:18:44.137Z,14.74
2023-01-01T06:20:45.617Z,14.75
2023-01-01T06:22:47.322Z,14.76
2023-01-01T06:24:48.830Z,14.75
2023-01-01T06:26:50.361Z,14.73
2023-01-01T06:28:52.647Z,14.75
2023-01-01T06:30:54.404Z,14.74
2023-01-01T06:32:55.867Z,14.71
2023-01-01T06:34:57.317Z,14.71
2023-01-01T06:37:03.083Z,14.74
2023-01-01T06:39:08.726Z,14.71
2023-01-01T06:41:12.828Z,14.74
2023-01-01T06:43:14.285Z,14.76
2023-01-01T06:45:15.828Z,14.73
2023-01-01T06:47:17.267Z,14.69
2023-01-01T06:49:18.804Z,14.67
2023-01-01T06:51:22.672Z,14.63
2023-01-01T06:53:25.776Z,14.57
2023-01-01T06:55:27.226Z,14.54
2023-01-01T06:57:28.675Z,14.52
2023-01-01T06:59:30.137Z,14.52
2023-01-01T07:01:33.587Z,14.51
2023-01-01T07:03:35.305Z,14.52
2023-01-01T07:05:36.854Z,14.49
2023-01-01T07:07:38.445Z,14.47
2023-01-01T07:09:39.985Z,14.48
2023-01-01T07:11:41.454Z,14.47
2023-01-01T07:13:42.993Z,14.44
2023-01-01T07:15:44.611Z,14.40
2023-01-01T07:17:46.100Z,14.35
2023-01-01T07:19:47.665Z,14.41
2023-01-01T07:21:54.346Z,14.43
2023-01-01T07:23:56.814Z,14.44
2023-01-01T07:25:58.902Z,14.42
2023-01-01T07:28:00.367Z,14.39
2023-01-01T07:30:01.876Z,14.32
2023-01-01T07:32:04.363Z,14.25
2023-01-01T07:34:07.331Z,14.24
2023-01-01T07:36:09.089Z,14.24
2023-01-01T07:38:10.640Z,14.22
2023-01-01T07:40:12.204Z,14.24
2023-01-01T07:42:13.665Z,14.26
2023-01-01T07:44:15.153Z,14.28
2023-01-01T07:46:18.879Z,14.29
2023-01-01T07:48:20.479Z,14.31
2023-01-01T07:50:23.472Z,14.30
2023-01-01T07:52:24.933Z,14.28
2023-01-01T07:54:26.403Z,14.26
2023-01-01T07:56:27.977Z,14.23
2023-01-01T07:58:29.452Z,14.19
2023-01-01T08:00:30.949Z,14.17
2023-01-01T08:02:32.819Z,14.14
2023-01-01T08:04:35.282Z,14.15
2023-01-01T08:06:37.795Z,14.13
2023-01-01T08:08:40.132Z,14.16
2023-01-01T08:10:41.596Z,14.16
2023-01-01T08:12:43.515Z,14.19
2023-01-01T08:14:44.952Z,14.19
2023-01-01T08:16:46.443Z,14.18
2023-01-01T08:18:47.954Z,14.17
2023-01-01T08:20:49.409Z,14.18
2023-01-01T08:22:50.910Z,14.19
2023-01-01T08:24:52.387Z,14.20
2023-01-01T08:26:53.897Z,14.19
2023-01-01T08:28:57.396Z,14.18
2023-01-01T08:31:00.257Z,14.15
2023-01-01T08:33:01.794Z,14.11
2023-01-01T08:35:04.100Z,14.08
2023-01-01T08:37:05.821Z,14.09
2023-01-01T08:39:08.189Z,14.06
2023-01-01T08:41:10.092Z,14.10
2023-01-01T08:43:11.544Z,14.08
2023-01-01T08:45:12.999Z,14.07
2023-01-01T08:47:23.143Z,14.11
2023-01-01T08:49:24.607Z,14.17
2023-01-01T08:51:26.067Z,14.21
2023-01-01T08:53:29.105Z,14.22
2023-01-01T08:55:31.392Z,14.23
2023-01-01T08:57:32.884Z,14.22
2023-01-01T08:59:34.417Z,14.22
2023-01-01T09:01:35.998Z,14.21
2023-01-01T09:03:37.664Z,14.22
2023-01-01T09:05:39.188Z,14.19
2023-01-01T09:07:40.626Z,14.18
2023-01-01T09:09:42.132Z,14.21
2023-01-01T09:11:59.125Z,14.24
2023-01-01T09:14:00.583Z,14.28
2023-01-01T09:16:02.108Z,14.30
2023-01-01T09:18:03.849Z,14.31
2023-01-01T09:20:05.898Z,14.32
2023-01-01T09:22:11.940Z,14.33
2023-01-01T09:24:13.389Z,14.34
2023-01-01T09:26:14.862Z,14.34
2023-01-01T09:28:20.440Z,14.36
2023-01-01T09:30:25.094Z,14.33
2023-01-01T09:32:26.738Z,14.32
2023-01-01T09:34:28.234Z,14.31
2023-01-01T09:36:31.983Z,14.28
2023-01-01T09:38:33.486Z,14.27
2023-01-01T09:40:51.164Z,14.27
2023-01-01T09:43:19.559Z,14.26
2023-01-01T09:45:28.661Z,14.24
2023-01-01T09:47:41.143Z,14.24
2023-01-01T09:49:46.542Z,14.23
2023-01-01T09:51:57.926Z,14.21
2023-01-01T09:54:05.268Z,14.18
2023-01-01T09:56:17.529Z,14.14
2023-01-01T09:58:24.187Z,14.12
2023-01-01T10:00:29.913Z,14.11
2023-01-01T10:02:51.461Z,14.09
2023-01-01T10:05:05.262Z,14.03
2023-01-01T10:07:21.914Z,14.02
2023-01-01T10:09:56.555Z,13.98
2023-01-01T10:12:11.702Z,13.96
2023-01-01T10:14:19.913Z,13.96
2023-01-01T10:16:39.028Z,13.96
2023-01-01T10:18:42.502Z,13.94
2023-01-01T10:21:09.380Z,13.90
2023-01-01T10:23:25.712Z,13.86
2023-01-01T10:25:33.898Z,13.84
2023-01-01T10:27:44.784Z,13.81
2023-01-01T10:29:50.247Z,13.74
2023-01-01T10:31:55.105Z,13.69
2023-01-01T10:33:57.180Z,13.69
2023-01-01T10:35:58.988Z,13.69
2023-01-01T10:38:01.738Z,13.69
2023-01-01T10:40:15.555Z,13.72
2023-01-01T10:42:17.275Z,13.73
2023-01-01T10:44:30.251Z,13.74
2023-01-01T10:46:32.617Z,13.73
2023-01-01T10:48:35.973Z,13.72
2023-01-01T10:50:52.452Z,13.74
2023-01-01T10:52:57.061Z,13.73
2023-01-01T10:54:59.961Z,13.72
2023-01-01T10:57:27.714Z,13.74
2023-01-01T10:59:38.047Z,13.79
2023-01-01T11:01:39.604Z,13.86
2023-01-01T11:04:03.993Z,13.90
2023-01-01T11:06:25.127Z,13.95
2023-01-01T11:08:29.434Z,14.06
2023-01-01T11:10:31.571Z,14.15
2023-01-01T11:15:00.069Z,14.27
2023-01-01T11:17:01.849Z,14.29
2023-01-01T11:19:08.444Z,14.20
2023-01-01T11:21:10.072Z,14.08
2023-01-01T11:23:27.105Z,13.98
2023-01-01T11:25:30.260Z,13.85
2023-01-01T11:27:31.782Z,13.78
2023-01-01T11:29:33.283Z,13.74
2023-01-01T11:31:38.823Z,13.72
2023-01-01T11:33:45.061Z,13.67
2023-01-01T11:35:50.912Z,13.64
2023-01-01T11:37:54.997Z,13.59
2023-01-01T11:39:58.500Z,13.58
2023-01-01T11:42:00.204Z,13.59
2023-01-01T11:44:01.739Z,13.59
2023-01-01T11:46:07.660Z,13.61
2023-01-01T11:48:17.664Z,13.63
2023-01-01T11:50:42.343Z,13.67
2023-01-01T11:52:46.891Z,13.77
2023-01-01T11:54:48.725Z,13.77
2023-01-01T11:56:54.661Z,13.77
2023-01-01T11:59:04.915Z,13.82
2023-01-01T12:01:06.352Z,13.84
2023-01-01T12:03:34.303Z,13.83
2023-01-01T12:06:03.637Z,13.82
2023-01-01T12:08:10.559Z,13.86
2023-01-01T12:10:23.314Z,13.89
2023-01-01T12:12:35.648Z,13.91
2023-01-01T12:14:55.496Z,13.89
2023-01-01T12:17:12.928Z,13.98
2023-01-01T12:19:20.779Z,13.94
2023-01-01T12:21:34.740Z,13.83
2023-01-01T12:23:36.719Z,13.74
2023-01-01T12:25:43.909Z,13.65
2023-01-01T12:27:58.064Z,13.57
2023-01-01T12:30:13.622Z,13.53
2023-01-01T12:32:38.413Z,13.47
2023-01-01T12:35:03.532Z,13.44
2023-01-01T12:37:35.936Z,13.41
2023-01-01T12:39:56.372Z,13.40
2023-01-01T12:42:14.320Z,13.41
2023-01-01T12:44:58.921Z,13.46
2023-01-01T12:47:06.644Z,13.50
2023-01-01T12:49:15.895Z,13.51
2023-01-01T12:51:32.211Z,13.49
2023-01-01T12:53:45.539Z,13.48
2023-01-01T12:55:56.144Z,13.45
2023-01-01T12:58:08.439Z,13.42
2023-01-01T13:00:16.429Z,13.40
2023-01-01T13:02:25.344Z,13.38
2023-01-01T13:04:27.240Z,13.35
2023-01-01T13:06:41.188Z,13.31
2023-01-01T13:08:47.598Z,13.27
2023-01-01T13:10:59.253Z,13.24
2023-01-01T13:13:01.786Z,13.20
2023-01-01T13:15:44.115Z,13.19
2023-01-01T13:17:53.148Z,13.14
2023-01-01T13:20:21.142Z,13.13
2023-01-01T13:22:28.444Z,13.11
2023-01-01T13:24:29.962Z,13.11
2023-01-01T13:26:32.083Z,13.13
2023-01-01T13:28:33.545Z,13.14
2023-01-01T13:30:38.443Z,13.16
2023-01-01T13:33:23.203Z,13.19
2023-01-01T13:35:26.909Z,13.17
2023-01-01T13:37:30.970Z,13.21
2023-01-01T13:40:24.671Z,13.23
2023-01-01T13:42:59.187Z,13.21
2023-01-01T13:45:02.341Z,13.16
2023-01-01T13:47:18.741Z,13.15
2023-01-01T13:49:55.555Z,13.14
2023-01-01T13:52:06.015Z,13.13
2023-01-01T13:54:45.698Z,13.09
2023-01-01T13:56:58.488Z,13.12
2023-01-01T13:59:26.105Z,13.09
2023-01-01T14:01:52.233Z,13.04
2023-01-01T14:03:55.981Z,13.02
2023-01-01T14:06:02.376Z,13.04
2023-01-01T14:08:08.495Z,13.04
2023-01-01T14:10:34.046Z,13.03
2023-01-01T14:12:38.338Z,13.04
2023-01-01T14:14:39.820Z,12.98
2023-01-01T14:16:41.877Z,12.95
2023-01-01T14:18:47.469Z,12.92
2023-01-01T14:20:53.530Z,12.87
2023-01-01T14:22:55.016Z,12.85
2023-01-01T14:24:56.772Z,12.81
2023-01-01T14:26:59.220Z,12.77
2023-01-01T14:29:06.071Z,12.75
2023-01-01T14:31:14.637Z,12.74
2023-01-01T14:33:24.949Z,12.72
2023-01-01T14:35:27.791Z,12.65
2023-01-01T14:37:29.317Z,12.64
2023-01-01T14:39:33.375Z,12.62
2023-01-01T14:41:37.812Z,12.63
2023-01-01T14:43:42.438Z,12.58
2023-01-01T14:45:44.250Z,12.60
2023-01-01T14:47:51.519Z,12.56
2023-01-01T14:49:54.838Z,12.52
2023-01-01T14:52:26.489Z,12.53
2023-01-01T14:54:35.829Z,12.50
2023-01-01T14:56:38.020Z,12.50
2023-01-01T14:58:40.594Z,12.48
2023-01-01T15:00:42.147Z,12.49
2023-01-01T15:02:43.737Z,12.48
2023-01-01T15:04:45.369Z,12.47
2023-01-01T15:06:56.574Z,12.47
2023-01-01T15:08:58.309Z,12.43
2023-01-01T15:11:03.292Z,12.43
2023-01-01T15:13:07.334Z,12.42
2023-01-01T15:15:40.023Z,12.41
2023-01-01T15:17:46.631Z,12.40
2023-01-01T15:20:06.797Z,12.37
2023-01-01T15:22:31.242Z,12.35
2023-01-01T15:24:33.380Z,12.31
2023-01-01T15:26:41.292Z,12.29
2023-01-01T15:28:42.823Z,12.25
2023-01-01T15:30:44.299Z,12.23
2023-01-01T15:32:45.848Z,12.22
2023-01-01T15:34:53.006Z,12.21
2023-01-01T15:36:56.409Z,12.20
2023-01-01T15:38:58.483Z,12.17
2023-01-01T15:41:21.423Z,12.13
2023-01-01T15:43:25.467Z,12.10
2023-01-01T15:45:41.054Z,12.09
2023-01-01T15:47:43.339Z,12.03
2023-01-01T15:49:44.789Z,12.03
2023-01-01T15:51:46.262Z,11.99
2023-01-01T15:54:00.651Z,11.97
2023-01-01T15:56:11.365Z,11.94
2023-01-01T15:58:18.457Z,11.94
2023-01-01T16:00:22.927Z,11.91
2023-01-01T16:02:31.664Z,11.88
2023-01-01T16:04:33.684Z,11.85
2023-01-01T16:06:44.014Z,11.86
2023-01-01T16:08:45.573Z,11.85
2023-01-01T16:10:51.223Z,11.86
2023-01-01T16:12:52.693Z,11.84
2023-01-01T16:14:54.198Z,11.83
2023-01-01T16:17:00.834Z,11.78
2023-01-01T16:19:02.676Z,11.74
2023-01-01T16:21:05.814Z,11.74
2023-01-01T16:23:10.129Z,11.73
2023-01-01T16:25:20.760Z,11.74
2023-01-01T16:27:22.250Z,11.68
2023-01-01T16:29:23.717Z,11.67
2023-01-01T16:31:28.589Z,11.64
2023-01-01T16:33:30.111Z,11.63
2023-01-01T16:35:31.564Z,11.61
2023-01-01T16:37:33.398Z,11.57
2023-01-01T16:39:34.901Z,11.56
2023-01-01T16:41:39.336Z,11.55
2023-01-01T16:43:42.330Z,11.53
2023-01-01T16:45:47.005Z,11.51
2023-01-01T16:47:48.520Z,11.50
2023-01-01T16:49:49.995Z,11.48
2023-01-01T16:51:51.455Z,11.47
2023-01-01T16:53:52.938Z,11.44
2023-01-01T16:55:54.693Z,11.44
2023-01-01T16:58:21.035Z,11.45
2023-01-01T17:00:17.743Z,11.42
2023-01-01T17:02:19.344Z,11.39
2023-01-01T17:04:20.989Z,11.39
2023-01-01T17:06:22.449Z,11.41
2023-01-01T17:08:24.058Z,11.38
2023-01-01T17:10:25.501Z,11.39
2023-01-01T17:12:26.949Z,11.37
2023-01-01T17:14:28.461Z,11.35
2023-01-01T17:16:36.236Z,11.36
2023-01-01T17:19:13.455Z,11.36
2023-01-01T17:21:10.662Z,11.38
2023-01-01T17:23:12.097Z,11.37
2023-01-01T17:25:13.610Z,11.37
2023-01-01T17:27:15.098Z,11.37
2023-01-01T17:29:16.550Z,11.35
2023-01-01T17:31:20.331Z,11.35
2023-01-01T17:33:21.802Z,11.37
2023-01-01T17:35:23.435Z,11.35
2023-01-01T17:37:25.645Z,11.32
2023-01-01T17:39:27.144Z,11.31
2023-01-01T17:41:28.639Z,11.28
2023-01-01T17:43:35.080Z,11.31
2023-01-01T17:45:36.910Z,11.30
2023-01-01T17:47:38.405Z,11.29
2023-01-01T17:49:39.964Z,11.26
2023-01-01T17:51:41.467Z,11.25
2023-01-01T17:53:43.027Z,11.25
2023-01-01T17:55:44.505Z,11.26
2023-01-01T17:57:45.981Z,11.26
2023-01-01T17:59:47.467Z,11.24
2023-01-01T18:01:49.012Z,11.24
2023-01-01T18:03:56.403Z,11.23
2023-01-01T18:05:57.918Z,11.21
2023-01-01T18:07:59.358Z,11.20
2023-01-01T18:10:00.827Z,11.17
2023-01-01T18:12:02.275Z,11.14
2023-01-01T18:14:03.951Z,11.14
2023-01-01T18:16:08.343Z,11.13
2023-01-01T18:18:09.849Z,11.13
2023-01-01T18:20:11.670Z,11.14
2023-01-01T18:22:13.636Z,11.14
2023-01-01T18:24:16.012Z,11.13
2023-01-01T18:26:18.116Z,11.12
2023-01-01T18:28:19.557Z,11.13
2023-01-01T18:30:21.127Z,11.10
2023-01-01T18:32:22.703Z,11.11
2023-01-01T18:34:24.165Z,11.10
2023-01-01T18:36:30.245Z,11.09
2023-01-01T18:38:32.017Z,11.06
2023-01-01T18:40:35.386Z,11.06
2023-01-01T18:42:46.132Z,11.05
2023-01-01T18:44:47.740Z,11.06
2023-01-01T18:47:04.166Z,11.02
2023-01-01T18:49:09.556Z,11.01
2023-01-01T18:51:29.246Z,11.00
2023-01-01T18:53:32.365Z,10.98
2023-01-01T18:55:33.867Z,10.98
2023-01-01T18:57:36.286Z,10.98
2023-01-01T18:59:37.936Z,10.96
2023-01-01T19:01:44.339Z,10.97
2023-01-01T19:03:51.259Z,10.97
2023-01-01T19:05:52.710Z,10.97
2023-01-01T19:08:06.222Z,10.97
2023-01-01T19:10:12.988Z,10.96
2023-01-01T19:12:18.484Z,10.96
2023-01-01T19:14:25.347Z,10.96
2023-01-01T19:16:30.461Z,10.95
2023-01-01T19:18:33.988Z,10.94
2023-01-01T19:20:35.517Z,10.95
2023-01-01T19:22:37.088Z,10.93
2023-01-01T19:24:43.840Z,10.93
2023-01-01T19:26:46.249Z,10.93
2023-01-01T19:29:00.644Z,10.93
2023-01-01T19:31:03.877Z,10.92
2023-01-01T19:33:05.436Z,10.90
2023-01-01T19:35:10.689Z,10.91
2023-01-01T19:37:14.932Z,10.90
2023-01-01T19:39:16.984Z,10.93
2023-01-01T19:41:18.468Z,10.94
2023-01-01T19:43:20.234Z,10.93
2023-01-01T19:45:22.165Z,10.96
2023-01-01T19:47:23.628Z,11.00
2023-01-01T19:49:25.096Z,11.02
2023-01-01T19:51:26.991Z,11.05
2023-01-01T19:53:28.475Z,11.08
2023-01-01T19:55:29.936Z,11.11
2023-01-01T19:57:31.632Z,11.12
2023-01-01T19:59:33.649Z,11.13
2023-01-01T20:01:35.744Z,11.16
2023-01-01T20:03:55.327Z,11.19
2023-01-01T20:05:58.345Z,11.23
2023-01-01T20:07:59.822Z,11.27
2023-01-01T20:10:01.344Z,11.31
2023-01-01T20:12:02.908Z,11.34
2023-01-01T20:14:04.518Z,11.36
2023-01-01T20:16:06.549Z,11.40
2023-01-01T20:18:08.025Z,11.44
2023-01-01T20:20:10.857Z,11.48
2023-01-01T20:22:13.889Z,11.49
2023-01-01T20:24:18.130Z,11.52
2023-01-01T20:26:20.741Z,11.54
2023-01-01T20:28:40.929Z,11.56
2023-01-01T20:30:42.380Z,11.56
2023-01-01T20:32:44.081Z,11.55
2023-01-01T20:34:45.771Z,11.57
2023-01-01T20:37:06.057Z,11.55
2023-01-01T20:39:07.521Z,11.56
2023-01-01T20:41:24.095Z,11.55
2023-01-01T20:43:25.547Z,11.56
2023-01-01T20:45:27.097Z,11.57
2023-01-01T20:47:28.731Z,11.56
2023-01-01T20:49:30.188Z,11.55
2023-01-01T20:51:31.681Z,11.57
2023-01-01T20:53:33.358Z,11.59
2023-01-01T20:55:34.809Z,11.60
2023-01-01T20:57:36.323Z,11.61
2023-01-01T20:59:38.697Z,11.60
2023-01-01T21:01:40.579Z,11.61
2023-01-01T21:03:42.129Z,11.62
2023-01-01T21:05:43.586Z,11.63
2023-01-01T21:07:45.095Z,11.64
2023-01-01T21:09:46.877Z,11.65
2023-01-01T21:11:48.342Z,11.65
2023-01-01T21:13:50.535Z,11.65
2023-01-01T21:15:54.489Z,11.64
2023-01-01T21:17:56.158Z,11.67
2023-01-01T21:19:58.480Z,11.67
2023-01-01T21:21:59.941Z,11.66
2023-01-01T21:24:06.906Z,11.67
2023-01-01T21:26:15.824Z,11.65
2023-01-01T21:28:17.880Z,11.63
2023-01-01T21:30:20.138Z,11.61
2023-01-01T21:32:32.869Z,11.58
2023-01-01T21:34:34.292Z,11.55
2023-01-01T21:36:35.782Z,11.52
2023-01-01T21:38:37.263Z,11.50
2023-01-01T21:40:41.515Z,11.46
2023-01-01T21:42:42.969Z,11.44
2023-01-01T21:44:44.464Z,11.42
2023-01-01T21:46:54.245Z,11.38
2023-01-01T21:49:02.781Z,11.33
2023-01-01T21:51:18.458Z,11.31
2023-01-01T21:53:22.405Z,11.26
2023-01-01T21:55:46.546Z,11.24
2023-01-01T21:57:48.020Z,11.21
2023-01-01T21:59:50.743Z,11.17
2023-01-01T22:01:54.688Z,11.15
2023-01-01T22:04:11.463Z,11.13
2023-01-01T22:06:15.212Z,11.09
2023-01-01T22:08:23.736Z,11.04
2023-01-01T22:10:37.253Z,11.00
2023-01-01T22:12:39.079Z,10.96
2023-01-01T22:14:45.845Z,10.91
2023-01-01T22:16:53.353Z,10.89
2023-01-01T22:18:55.569Z,10.90
2023-01-01T22:20:57.949Z,10.91
2023-01-01T22:23:04.960Z,10.92
2023-01-01T22:25:24.426Z,10.90
2023-01-01T22:27:29.020Z,10.88
2023-01-01T22:29:32.173Z,10.87
2023-01-01T22:31:36.200Z,10.88
2023-01-01T22:33:41.613Z,10.83
2023-01-01T22:35:43.296Z,10.80
2023-01-01T22:37:48.399Z,10.80
2023-01-01T22:39:53.903Z,10.77
2023-01-01T22:41:55.489Z,10.75
2023-01-01T22:44:02.614Z,10.76
2023-01-01T22:46:28.068Z,10.75
2023-01-01T22:48:35.028Z,10.77
2023-01-01T22:50:36.841Z,10.74
2023-01-01T22:52:38.274Z,10.74
2023-01-01T22:54:39.775Z,10.74
2023-01-01T22:56:41.296Z,10.74
2023-01-01T22:58:42.788Z,10.73
2023-01-01T23:00:44.260Z,10.70
2023-01-01T23:02:46.162Z,10.66
2023-01-01T23:04:47.648Z,10.59
2023-01-01T23:06:49.166Z,10.56
2023-01-01T23:08:51.903Z,10.57
2023-01-01T23:10:53.824Z,10.59
2023-01-01T23:12:55.262Z,10.60
2023-01-01T23:15:15.199Z,10.61
2023-01-01T23:17:16.651Z,10.58
2023-01-01T23:19:18.704Z,10.56
2023-01-01T23:21:26.845Z,10.50
2023-01-01T23:23:29.849Z,10.38
2023-01-01T23:25:31.463Z,10.33
2023-01-01T23:27:33.710Z,10.31
2023-01-01T23:29:35.664Z,10.35
2023-01-01T23:31:38.791Z,10.38
2023-01-01T23:33:41.004Z,10.41
2023-01-01T23:35:42.681Z,10.43
2023-01-01T23:37:44.434Z,10.43
2023-01-01T23:39:45.893Z,10.42
2023-01-01T23:41:47.469Z,10.38
2023-01-01T23:43:49.540Z,10.37
2023-01-01T23:45:51.532Z,10.38
2023-01-01T23:47:53.385Z,10.41
2023-01-01T23:49:54.845Z,10.42
2023-01-01T23:51:56.453Z,10.44
2023-01-01T23:53:57.937Z,10.45
2023-01-01T23:55:59.397Z,10.45
2023-01-01T23:58:00.842Z,10.45
